sensor_id;sensor_type;location;lat;lon;timestamp;temperature;humidity
59975;DHT22;62136;-35.664;-63.766;2023-04-06T00:01:21;25.50;52.10
59975;DHT22;62136;-35.664;-63.766;2023-04-06T00:03:48;25.50;52.10
59975;DHT22;62136;-35.664;-63.766;2023-04-06T00:06:15;25.50;52.20
59975;DHT22;62136;-35.664;-63.766;2023-04-06T00:08:42;25.50;52.20
59975;DHT22;62136;-35.664;-63.766;2023-04-06T00:11:10;25.40;52.20
59975;DHT22;62136;-35.664;-63.766;2023-04-06T00:13:38;25.40;52.40
59975;DHT22;62136;-35.664;-63.766;2023-04-06T00:16:07;25.40;52.40
59975;DHT22;62136;-35.664;-63.766;2023-04-06T00:18:35;25.40;52.30
59975;DHT22;62136;-35.664;-63.766;2023-04-06T00:21:02;25.40;52.40
59975;DHT22;62136;-35.664;-63.766;2023-04-06T00:23:29;25.40;52.40
59975;DHT22;62136;-35.664;-63.766;2023-04-06T00:25:56;25.30;52.40
59975;DHT22;62136;-35.664;-63.766;2023-04-06T00:28:24;25.30;52.40
59975;DHT22;62136;-35.664;-63.766;2023-04-06T00:30:56;25.30;52.40
59975;DHT22;62136;-35.664;-63.766;2023-04-06T00:33:23;25.30;52.40
59975;DHT22;62136;-35.664;-63.766;2023-04-06T00:35:51;25.30;52.40
59975;DHT22;62136;-35.664;-63.766;2023-04-06T00:38:18;25.30;52.40
59975;DHT22;62136;-35.664;-63.766;2023-04-06T00:40:45;25.30;52.50
59975;DHT22;62136;-35.664;-63.766;2023-04-06T00:43:14;25.20;52.50
59975;DHT22;62136;-35.664;-63.766;2023-04-06T00:45:42;25.20;52.50
59975;DHT22;62136;-35.664;-63.766;2023-04-06T00:48:09;25.20;52.50
59975;DHT22;62136;-35.664;-63.766;2023-04-06T00:50:36;25.20;52.50
59975;DHT22;62136;-35.664;-63.766;2023-04-06T00:53:03;25.20;52.50
59975;DHT22;62136;-35.664;-63.766;2023-04-06T00:55:30;25.20;52.60
59975;DHT22;62136;-35.664;-63.766;2023-04-06T00:57:59;25.20;52.60
59975;DHT22;62136;-35.664;-63.766;2023-04-06T01:00:27;25.10;52.60
59975;DHT22;62136;-35.664;-63.766;2023-04-06T01:02:54;25.10;52.60
59975;DHT22;62136;-35.664;-63.766;2023-04-06T01:05:21;25.10;52.60
59975;DHT22;62136;-35.664;-63.766;2023-04-06T01:07:48;25.10;52.60
59975;DHT22;62136;-35.664;-63.766;2023-04-06T01:10:29;25.10;52.60
59975;DHT22;62136;-35.664;-63.766;2023-04-06T01:12:56;25.10;52.70
59975;DHT22;62136;-35.664;-63.766;2023-04-06T01:15:24;25.10;52.70
59975;DHT22;62136;-35.664;-63.766;2023-04-06T01:17:52;25.10;52.70
59975;DHT22;62136;-35.664;-63.766;2023-04-06T01:20:19;25.00;52.70
59975;DHT22;62136;-35.664;-63.766;2023-04-06T01:22:46;25.10;52.80
59975;DHT22;62136;-35.664;-63.766;2023-04-06T01:25:14;25.00;52.70
59975;DHT22;62136;-35.664;-63.766;2023-04-06T01:27:41;25.00;52.80
59975;DHT22;62136;-35.664;-63.766;2023-04-06T01:30:09;25.00;52.70
59975;DHT22;62136;-35.664;-63.766;2023-04-06T01:32:39;25.00;52.70
59975;DHT22;62136;-35.664;-63.766;2023-04-06T01:35:06;25.00;52.70
59975;DHT22;62136;-35.664;-63.766;2023-04-06T01:37:33;25.00;53.30
59975;DHT22;62136;-35.664;-63.766;2023-04-06T01:40:04;25.00;52.90
59975;DHT22;62136;-35.664;-63.766;2023-04-06T01:42:32;25.00;52.90
59975;DHT22;62136;-35.664;-63.766;2023-04-06T01:44:59;25.00;52.80
59975;DHT22;62136;-35.664;-63.766;2023-04-06T01:47:26;24.90;52.80
59975;DHT22;62136;-35.664;-63.766;2023-04-06T01:49:56;25.00;52.80
59975;DHT22;62136;-35.664;-63.766;2023-04-06T01:52:26;24.90;52.80
59975;DHT22;62136;-35.664;-63.766;2023-04-06T01:54:53;24.90;52.90
59975;DHT22;62136;-35.664;-63.766;2023-04-06T01:57:20;24.90;52.90
59975;DHT22;62136;-35.664;-63.766;2023-04-06T01:59:47;24.90;53.50
59975;DHT22;62136;-35.664;-63.766;2023-04-06T02:02:14;24.90;53.00
59975;DHT22;62136;-35.664;-63.766;2023-04-06T02:04:41;24.90;53.00
59975;DHT22;62136;-35.664;-63.766;2023-04-06T02:07:08;24.80;53.00
59975;DHT22;62136;-35.664;-63.766;2023-04-06T02:09:36;24.90;53.00
59975;DHT22;62136;-35.664;-63.766;2023-04-06T02:12:03;24.90;53.00
59975;DHT22;62136;-35.664;-63.766;2023-04-06T02:14:33;24.90;53.40
59975;DHT22;62136;-35.664;-63.766;2023-04-06T02:17:00;24.80;53.00
59975;DHT22;62136;-35.664;-63.766;2023-04-06T02:19:27;24.90;53.10
59975;DHT22;62136;-35.664;-63.766;2023-04-06T02:21:54;24.80;53.10
59975;DHT22;62136;-35.664;-63.766;2023-04-06T02:24:21;24.80;53.10
59975;DHT22;62136;-35.664;-63.766;2023-04-06T02:26:49;24.80;53.00
59975;DHT22;62136;-35.664;-63.766;2023-04-06T02:29:16;24.80;53.20
59975;DHT22;62136;-35.664;-63.766;2023-04-06T02:31:46;24.80;53.10
59975;DHT22;62136;-35.664;-63.766;2023-04-06T02:34:13;24.80;53.10
59975;DHT22;62136;-35.664;-63.766;2023-04-06T02:36:47;24.80;53.10
59975;DHT22;62136;-35.664;-63.766;2023-04-06T02:39:14;24.80;53.10
59975;DHT22;62136;-35.664;-63.766;2023-04-06T02:41:42;24.70;53.10
59975;DHT22;62136;-35.664;-63.766;2023-04-06T02:44:09;24.70;53.10
59975;DHT22;62136;-35.664;-63.766;2023-04-06T02:46:36;24.70;53.20
59975;DHT22;62136;-35.664;-63.766;2023-04-06T02:49:03;24.70;53.20
59975;DHT22;62136;-35.664;-63.766;2023-04-06T02:51:30;24.70;53.20
59975;DHT22;62136;-35.664;-63.766;2023-04-06T02:53:57;24.70;53.10
59975;DHT22;62136;-35.664;-63.766;2023-04-06T02:56:24;24.70;53.20
59975;DHT22;62136;-35.664;-63.766;2023-04-06T02:58:54;24.70;53.20
59975;DHT22;62136;-35.664;-63.766;2023-04-06T03:01:21;24.70;53.20
59975;DHT22;62136;-35.664;-63.766;2023-04-06T03:03:48;24.70;53.30
59975;DHT22;62136;-35.664;-63.766;2023-04-06T03:06:16;24.70;53.20
59975;DHT22;62136;-35.664;-63.766;2023-04-06T03:08:45;24.70;53.30
59975;DHT22;62136;-35.664;-63.766;2023-04-06T03:11:13;24.70;53.30
59975;DHT22;62136;-35.664;-63.766;2023-04-06T03:13:40;24.70;53.30
59975;DHT22;62136;-35.664;-63.766;2023-04-06T03:16:07;24.70;53.20
59975;DHT22;62136;-35.664;-63.766;2023-04-06T03:18:34;24.70;53.20
59975;DHT22;62136;-35.664;-63.766;2023-04-06T03:21:01;24.60;53.30
59975;DHT22;62136;-35.664;-63.766;2023-04-06T03:23:29;24.70;53.30
59975;DHT22;62136;-35.664;-63.766;2023-04-06T03:25:56;24.70;53.30
59975;DHT22;62136;-35.664;-63.766;2023-04-06T03:28:24;24.60;53.30
59975;DHT22;62136;-35.664;-63.766;2023-04-06T03:30:51;24.60;53.30
59975;DHT22;62136;-35.664;-63.766;2023-04-06T03:33:18;24.60;53.40
59975;DHT22;62136;-35.664;-63.766;2023-04-06T03:35:45;24.60;53.30
59975;DHT22;62136;-35.664;-63.766;2023-04-06T03:38:12;24.60;53.30
59975;DHT22;62136;-35.664;-63.766;2023-04-06T03:40:39;24.60;53.30
59975;DHT22;62136;-35.664;-63.766;2023-04-06T03:43:06;24.60;53.30
59975;DHT22;62136;-35.664;-63.766;2023-04-06T03:45:36;24.60;53.30
59975;DHT22;62136;-35.664;-63.766;2023-04-06T03:48:04;24.60;53.30
59975;DHT22;62136;-35.664;-63.766;2023-04-06T03:50:31;24.60;53.20
59975;DHT22;62136;-35.664;-63.766;2023-04-06T03:52:58;24.60;53.20
59975;DHT22;62136;-35.664;-63.766;2023-04-06T03:55:28;24.60;53.20
59975;DHT22;62136;-35.664;-63.766;2023-04-06T03:57:55;24.60;53.20
59975;DHT22;62136;-35.664;-63.766;2023-04-06T04:00:24;24.60;53.20
59975;DHT22;62136;-35.664;-63.766;2023-04-06T04:02:51;24.60;53.30
59975;DHT22;62136;-35.664;-63.766;2023-04-06T04:05:18;24.60;53.30
59975;DHT22;62136;-35.664;-63.766;2023-04-06T04:07:46;24.60;53.30
59975;DHT22;62136;-35.664;-63.766;2023-04-06T04:10:15;24.50;53.20
59975;DHT22;62136;-35.664;-63.766;2023-04-06T04:12:45;24.50;53.20
59975;DHT22;62136;-35.664;-63.766;2023-04-06T04:15:12;24.50;53.20
59975;DHT22;62136;-35.664;-63.766;2023-04-06T04:17:39;24.50;53.30
59975;DHT22;62136;-35.664;-63.766;2023-04-06T04:20:07;24.50;53.30
59975;DHT22;62136;-35.664;-63.766;2023-04-06T04:22:34;24.50;53.30
59975;DHT22;62136;-35.664;-63.766;2023-04-06T04:25:01;24.50;53.30
59975;DHT22;62136;-35.664;-63.766;2023-04-06T04:27:28;24.50;53.30
59975;DHT22;62136;-35.664;-63.766;2023-04-06T04:29:56;24.50;53.30
59975;DHT22;62136;-35.664;-63.766;2023-04-06T04:32:23;24.50;53.40
59975;DHT22;62136;-35.664;-63.766;2023-04-06T04:34:53;24.40;53.30
59975;DHT22;62136;-35.664;-63.766;2023-04-06T04:37:20;24.40;53.40
59975;DHT22;62136;-35.664;-63.766;2023-04-06T04:39:47;24.40;53.40
59975;DHT22;62136;-35.664;-63.766;2023-04-06T04:42:14;24.40;53.40
59975;DHT22;62136;-35.664;-63.766;2023-04-06T04:44:41;24.40;53.40
59975;DHT22;62136;-35.664;-63.766;2023-04-06T04:47:08;24.40;53.50
59975;DHT22;62136;-35.664;-63.766;2023-04-06T04:49:36;24.40;53.50
59975;DHT22;62136;-35.664;-63.766;2023-04-06T04:52:03;24.40;53.50
59975;DHT22;62136;-35.664;-63.766;2023-04-06T04:54:30;24.30;53.60
59975;DHT22;62136;-35.664;-63.766;2023-04-06T04:56:57;24.40;53.60
59975;DHT22;62136;-35.664;-63.766;2023-04-06T04:59:24;24.30;53.60
59975;DHT22;62136;-35.664;-63.766;2023-04-06T05:01:51;24.30;53.50
59975;DHT22;62136;-35.664;-63.766;2023-04-06T05:04:18;24.30;53.60
59975;DHT22;62136;-35.664;-63.766;2023-04-06T05:06:45;24.30;53.60
59975;DHT22;62136;-35.664;-63.766;2023-04-06T05:09:12;24.30;53.60
59975;DHT22;62136;-35.664;-63.766;2023-04-06T05:11:39;24.30;53.70
59975;DHT22;62136;-35.664;-63.766;2023-04-06T05:14:07;24.30;53.60
59975;DHT22;62136;-35.664;-63.766;2023-04-06T05:16:34;24.30;53.70
59975;DHT22;62136;-35.664;-63.766;2023-04-06T05:19:01;24.30;53.70
59975;DHT22;62136;-35.664;-63.766;2023-04-06T05:21:28;24.30;53.60
59975;DHT22;62136;-35.664;-63.766;2023-04-06T05:23:56;24.30;53.70
59975;DHT22;62136;-35.664;-63.766;2023-04-06T05:26:24;24.30;53.70
59975;DHT22;62136;-35.664;-63.766;2023-04-06T05:28:51;24.30;53.90
59975;DHT22;62136;-35.664;-63.766;2023-04-06T05:31:18;24.30;53.80
59975;DHT22;62136;-35.664;-63.766;2023-04-06T05:33:45;24.30;53.90
59975;DHT22;62136;-35.664;-63.766;2023-04-06T05:36:12;24.30;53.90
59975;DHT22;62136;-35.664;-63.766;2023-04-06T05:38:39;24.30;53.90
59975;DHT22;62136;-35.664;-63.766;2023-04-06T05:41:06;24.30;53.90
59975;DHT22;62136;-35.664;-63.766;2023-04-06T05:43:33;24.20;53.80
59975;DHT22;62136;-35.664;-63.766;2023-04-06T05:46:00;24.20;54.10
59975;DHT22;62136;-35.664;-63.766;2023-04-06T05:48:27;24.20;54.00
59975;DHT22;62136;-35.664;-63.766;2023-04-06T05:50:55;24.20;54.10
59975;DHT22;62136;-35.664;-63.766;2023-04-06T05:53:22;24.20;54.10
59975;DHT22;62136;-35.664;-63.766;2023-04-06T05:55:49;24.10;54.10
59975;DHT22;62136;-35.664;-63.766;2023-04-06T05:58:16;24.10;53.90
59975;DHT22;62136;-35.664;-63.766;2023-04-06T06:00:43;24.10;54.00
59975;DHT22;62136;-35.664;-63.766;2023-04-06T06:03:12;24.20;54.10
59975;DHT22;62136;-35.664;-63.766;2023-04-06T06:05:41;24.10;54.10
59975;DHT22;62136;-35.664;-63.766;2023-04-06T06:10:38;24.10;54.20
59975;DHT22;62136;-35.664;-63.766;2023-04-06T06:13:06;24.10;54.20
59975;DHT22;62136;-35.664;-63.766;2023-04-06T06:15:33;24.10;54.20
59975;DHT22;62136;-35.664;-63.766;2023-04-06T06:18:01;24.10;54.10
59975;DHT22;62136;-35.664;-63.766;2023-04-06T06:20:28;24.10;54.20
59975;DHT22;62136;-35.664;-63.766;2023-04-06T06:22:55;24.00;54.20
59975;DHT22;62136;-35.664;-63.766;2023-04-06T06:25:22;24.00;54.20
59975;DHT22;62136;-35.664;-63.766;2023-04-06T06:27:49;24.00;54.20
59975;DHT22;62136;-35.664;-63.766;2023-04-06T06:30:16;24.10;54.40
59975;DHT22;62136;-35.664;-63.766;2023-04-06T06:32:44;24.00;54.30
59975;DHT22;62136;-35.664;-63.766;2023-04-06T06:35:11;24.00;54.30
59975;DHT22;62136;-35.664;-63.766;2023-04-06T06:37:38;24.00;54.40
59975;DHT22;62136;-35.664;-63.766;2023-04-06T06:40:05;24.00;54.30
59975;DHT22;62136;-35.664;-63.766;2023-04-06T06:42:32;24.00;54.40
59975;DHT22;62136;-35.664;-63.766;2023-04-06T06:44:59;24.00;54.40
59975;DHT22;62136;-35.664;-63.766;2023-04-06T06:47:26;23.90;54.40
59975;DHT22;62136;-35.664;-63.766;2023-04-06T06:49:53;24.00;54.40
59975;DHT22;62136;-35.664;-63.766;2023-04-06T06:52:20;23.90;54.50
59975;DHT22;62136;-35.664;-63.766;2023-04-06T06:54:49;23.90;54.30
59975;DHT22;62136;-35.664;-63.766;2023-04-06T06:57:16;23.90;54.40
59975;DHT22;62136;-35.664;-63.766;2023-04-06T06:59:43;23.90;54.50
59975;DHT22;62136;-35.664;-63.766;2023-04-06T07:02:11;23.90;54.50
59975;DHT22;62136;-35.664;-63.766;2023-04-06T07:04:38;23.90;54.50
59975;DHT22;62136;-35.664;-63.766;2023-04-06T07:07:05;23.90;54.60
59975;DHT22;62136;-35.664;-63.766;2023-04-06T07:09:32;23.90;54.50
59975;DHT22;62136;-35.664;-63.766;2023-04-06T07:11:59;23.90;54.50
59975;DHT22;62136;-35.664;-63.766;2023-04-06T07:14:27;23.80;54.60
59975;DHT22;62136;-35.664;-63.766;2023-04-06T07:16:54;23.90;55.00
59975;DHT22;62136;-35.664;-63.766;2023-04-06T07:19:21;23.80;54.50
59975;DHT22;62136;-35.664;-63.766;2023-04-06T07:21:48;23.80;54.60
59975;DHT22;62136;-35.664;-63.766;2023-04-06T07:24:18;23.80;54.60
59975;DHT22;62136;-35.664;-63.766;2023-04-06T07:26:45;23.80;54.70
59975;DHT22;62136;-35.664;-63.766;2023-04-06T07:29:12;23.80;54.70
59975;DHT22;62136;-35.664;-63.766;2023-04-06T07:31:39;23.80;54.80
59975;DHT22;62136;-35.664;-63.766;2023-04-06T07:34:06;23.70;54.70
59975;DHT22;62136;-35.664;-63.766;2023-04-06T07:36:33;23.80;54.70
59975;DHT22;62136;-35.664;-63.766;2023-04-06T07:39:00;23.80;54.80
59975;DHT22;62136;-35.664;-63.766;2023-04-06T07:41:27;23.80;54.90
59975;DHT22;62136;-35.664;-63.766;2023-04-06T07:43:54;23.70;54.70
59975;DHT22;62136;-35.664;-63.766;2023-04-06T07:46:21;23.70;54.80
59975;DHT22;62136;-35.664;-63.766;2023-04-06T07:48:48;23.70;54.90
59975;DHT22;62136;-35.664;-63.766;2023-04-06T07:51:16;23.70;54.80
59975;DHT22;62136;-35.664;-63.766;2023-04-06T07:53:46;23.70;54.90
59975;DHT22;62136;-35.664;-63.766;2023-04-06T07:56:13;23.70;54.80
59975;DHT22;62136;-35.664;-63.766;2023-04-06T07:58:41;23.70;54.90
59975;DHT22;62136;-35.664;-63.766;2023-04-06T08:01:09;23.70;54.90
59975;DHT22;62136;-35.664;-63.766;2023-04-06T08:03:36;23.60;54.80
59975;DHT22;62136;-35.664;-63.766;2023-04-06T08:06:03;23.60;55.00
59975;DHT22;62136;-35.664;-63.766;2023-04-06T08:08:31;23.60;54.90
59975;DHT22;62136;-35.664;-63.766;2023-04-06T08:10:58;23.60;54.90
59975;DHT22;62136;-35.664;-63.766;2023-04-06T08:13:25;23.60;54.90
59975;DHT22;62136;-35.664;-63.766;2023-04-06T08:15:52;23.60;55.00
59975;DHT22;62136;-35.664;-63.766;2023-04-06T08:18:20;23.60;55.00
59975;DHT22;62136;-35.664;-63.766;2023-04-06T08:20:47;23.60;55.00
59975;DHT22;62136;-35.664;-63.766;2023-04-06T08:23:15;23.60;55.20
59975;DHT22;62136;-35.664;-63.766;2023-04-06T08:25:42;23.60;55.00
59975;DHT22;62136;-35.664;-63.766;2023-04-06T08:28:09;23.60;55.10
59975;DHT22;62136;-35.664;-63.766;2023-04-06T08:30:39;23.60;55.00
59975;DHT22;62136;-35.664;-63.766;2023-04-06T08:33:06;23.50;55.10
59975;DHT22;62136;-35.664;-63.766;2023-04-06T08:35:33;23.50;55.20
59975;DHT22;62136;-35.664;-63.766;2023-04-06T08:38:00;23.50;55.20
59975;DHT22;62136;-35.664;-63.766;2023-04-06T08:40:27;23.50;55.30
59975;DHT22;62136;-35.664;-63.766;2023-04-06T08:43:00;23.50;55.30
59975;DHT22;62136;-35.664;-63.766;2023-04-06T08:45:30;23.50;55.20
59975;DHT22;62136;-35.664;-63.766;2023-04-06T08:47:58;23.50;55.30
59975;DHT22;62136;-35.664;-63.766;2023-04-06T08:50:30;23.50;55.10
59975;DHT22;62136;-35.664;-63.766;2023-04-06T08:52:57;23.50;55.30
59975;DHT22;62136;-35.664;-63.766;2023-04-06T08:55:24;23.50;55.30
59975;DHT22;62136;-35.664;-63.766;2023-04-06T08:57:52;23.50;55.40
59975;DHT22;62136;-35.664;-63.766;2023-04-06T09:00:21;23.40;55.30
59975;DHT22;62136;-35.664;-63.766;2023-04-06T09:02:49;23.40;55.40
59975;DHT22;62136;-35.664;-63.766;2023-04-06T09:05:19;23.40;55.30
59975;DHT22;62136;-35.664;-63.766;2023-04-06T09:07:46;23.40;55.30
59975;DHT22;62136;-35.664;-63.766;2023-04-06T09:10:13;23.40;55.30
59975;DHT22;62136;-35.664;-63.766;2023-04-06T09:12:43;23.40;55.40
59975;DHT22;62136;-35.664;-63.766;2023-04-06T09:15:21;23.40;55.50
59975;DHT22;62136;-35.664;-63.766;2023-04-06T09:17:48;23.40;55.60
59975;DHT22;62136;-35.664;-63.766;2023-04-06T09:20:23;23.40;55.60
59975;DHT22;62136;-35.664;-63.766;2023-04-06T09:22:52;23.30;55.50
59975;DHT22;62136;-35.664;-63.766;2023-04-06T09:25:21;23.30;55.30
59975;DHT22;62136;-35.664;-63.766;2023-04-06T09:27:59;23.30;55.60
59975;DHT22;62136;-35.664;-63.766;2023-04-06T09:30:27;23.30;55.50
59975;DHT22;62136;-35.664;-63.766;2023-04-06T09:32:58;23.30;55.80
59975;DHT22;62136;-35.664;-63.766;2023-04-06T09:35:25;23.30;55.60
59975;DHT22;62136;-35.664;-63.766;2023-04-06T09:37:53;23.30;55.70
59975;DHT22;62136;-35.664;-63.766;2023-04-06T09:40:21;23.20;55.60
59975;DHT22;62136;-35.664;-63.766;2023-04-06T09:42:49;23.30;55.80
59975;DHT22;62136;-35.664;-63.766;2023-04-06T09:45:19;23.30;55.70
59975;DHT22;62136;-35.664;-63.766;2023-04-06T09:47:47;23.20;55.60
59975;DHT22;62136;-35.664;-63.766;2023-04-06T09:50:16;23.20;55.70
59975;DHT22;62136;-35.664;-63.766;2023-04-06T09:52:53;23.20;55.70
59975;DHT22;62136;-35.664;-63.766;2023-04-06T09:55:30;23.20;55.80
59975;DHT22;62136;-35.664;-63.766;2023-04-06T09:58:07;23.20;55.70
59975;DHT22;62136;-35.664;-63.766;2023-04-06T10:00:51;23.20;55.70
59975;DHT22;62136;-35.664;-63.766;2023-04-06T10:05:59;23.20;55.90
59975;DHT22;62136;-35.664;-63.766;2023-04-06T10:08:29;23.20;55.90
59975;DHT22;62136;-35.664;-63.766;2023-04-06T10:10:56;23.20;55.90
59975;DHT22;62136;-35.664;-63.766;2023-04-06T10:13:25;23.20;56.00
59975;DHT22;62136;-35.664;-63.766;2023-04-06T10:15:52;23.10;55.90
59975;DHT22;62136;-35.664;-63.766;2023-04-06T10:18:21;23.10;55.90
59975;DHT22;62136;-35.664;-63.766;2023-04-06T10:21:08;23.10;56.00
59975;DHT22;62136;-35.664;-63.766;2023-04-06T10:23:45;23.10;56.00
59975;DHT22;62136;-35.664;-63.766;2023-04-06T10:26:15;23.10;56.10
59975;DHT22;62136;-35.664;-63.766;2023-04-06T10:28:44;23.10;56.00
59975;DHT22;62136;-35.664;-63.766;2023-04-06T10:31:12;23.10;56.00
59975;DHT22;62136;-35.664;-63.766;2023-04-06T10:33:39;23.10;56.10
59975;DHT22;62136;-35.664;-63.766;2023-04-06T10:36:11;23.10;56.10
59975;DHT22;62136;-35.664;-63.766;2023-04-06T10:38:40;23.10;56.10
59975;DHT22;62136;-35.664;-63.766;2023-04-06T10:41:09;23.10;56.10
59975;DHT22;62136;-35.664;-63.766;2023-04-06T10:43:40;23.00;56.20
59975;DHT22;62136;-35.664;-63.766;2023-04-06T10:46:09;23.10;56.20
59975;DHT22;62136;-35.664;-63.766;2023-04-06T10:48:43;23.00;56.20
59975;DHT22;62136;-35.664;-63.766;2023-04-06T10:51:13;23.00;56.30
59975;DHT22;62136;-35.664;-63.766;2023-04-06T10:53:45;23.10;56.30
59975;DHT22;62136;-35.664;-63.766;2023-04-06T10:56:17;23.00;56.30
59975;DHT22;62136;-35.664;-63.766;2023-04-06T10:58:49;23.00;56.10
59975;DHT22;62136;-35.664;-63.766;2023-04-06T11:01:21;23.00;56.30
59975;DHT22;62136;-35.664;-63.766;2023-04-06T11:03:50;23.00;56.30
59975;DHT22;62136;-35.664;-63.766;2023-04-06T11:06:22;23.00;56.30
59975;DHT22;62136;-35.664;-63.766;2023-04-06T11:08:50;22.90;56.40
59975;DHT22;62136;-35.664;-63.766;2023-04-06T11:11:19;23.00;56.40
59975;DHT22;62136;-35.664;-63.766;2023-04-06T11:13:54;22.90;56.80
59975;DHT22;62136;-35.664;-63.766;2023-04-06T11:16:31;23.00;56.40
59975;DHT22;62136;-35.664;-63.766;2023-04-06T11:19:02;23.00;56.40
59975;DHT22;62136;-35.664;-63.766;2023-04-06T11:21:37;23.00;56.50
59975;DHT22;62136;-35.664;-63.766;2023-04-06T11:29:14;23.00;56.40
59975;DHT22;62136;-35.664;-63.766;2023-04-06T11:31:45;23.00;56.50
59975;DHT22;62136;-35.664;-63.766;2023-04-06T11:34:24;23.00;56.60
59975;DHT22;62136;-35.664;-63.766;2023-04-06T11:37:01;23.00;56.50
59975;DHT22;62136;-35.664;-63.766;2023-04-06T11:39:32;23.00;56.50
59975;DHT22;62136;-35.664;-63.766;2023-04-06T11:42:04;23.00;56.50
59975;DHT22;62136;-35.664;-63.766;2023-04-06T11:44:44;23.00;56.50
59975;DHT22;62136;-35.664;-63.766;2023-04-06T11:47:15;23.00;56.50
59975;DHT22;62136;-35.664;-63.766;2023-04-06T11:49:44;23.00;56.50
59975;DHT22;62136;-35.664;-63.766;2023-04-06T11:52:25;23.00;56.50
59975;DHT22;62136;-35.664;-63.766;2023-04-06T11:54:53;23.00;56.60
59975;DHT22;62136;-35.664;-63.766;2023-04-06T11:57:22;23.10;56.60
59975;DHT22;62136;-35.664;-63.766;2023-04-06T11:59:52;23.00;56.60
59975;DHT22;62136;-35.664;-63.766;2023-04-06T12:02:20;23.00;56.50
59975;DHT22;62136;-35.664;-63.766;2023-04-06T12:04:47;23.00;56.60
59975;DHT22;62136;-35.664;-63.766;2023-04-06T12:07:14;23.00;56.60
59975;DHT22;62136;-35.664;-63.766;2023-04-06T12:09:42;23.00;56.70
59975;DHT22;62136;-35.664;-63.766;2023-04-06T12:12:09;23.00;56.70
59975;DHT22;62136;-35.664;-63.766;2023-04-06T12:14:36;23.00;56.70
59975;DHT22;62136;-35.664;-63.766;2023-04-06T12:17:03;23.00;56.70
59975;DHT22;62136;-35.664;-63.766;2023-04-06T12:19:31;23.10;56.70
59975;DHT22;62136;-35.664;-63.766;2023-04-06T12:21:58;23.10;56.70
59975;DHT22;62136;-35.664;-63.766;2023-04-06T12:24:25;23.10;56.80
59975;DHT22;62136;-35.664;-63.766;2023-04-06T12:26:53;23.10;56.70
59975;DHT22;62136;-35.664;-63.766;2023-04-06T12:29:21;23.10;56.70
59975;DHT22;62136;-35.664;-63.766;2023-04-06T12:31:48;23.10;56.70
59975;DHT22;62136;-35.664;-63.766;2023-04-06T12:34:15;23.10;56.70
59975;DHT22;62136;-35.664;-63.766;2023-04-06T12:36:42;23.20;56.80
59975;DHT22;62136;-35.664;-63.766;2023-04-06T12:39:09;23.10;56.70
59975;DHT22;62136;-35.664;-63.766;2023-04-06T12:41:37;23.20;56.80
59975;DHT22;62136;-35.664;-63.766;2023-04-06T12:44:07;23.20;56.80
59975;DHT22;62136;-35.664;-63.766;2023-04-06T12:46:34;23.20;56.80
59975;DHT22;62136;-35.664;-63.766;2023-04-06T12:49:01;23.20;56.80
59975;DHT22;62136;-35.664;-63.766;2023-04-06T12:51:29;23.20;56.80
59975;DHT22;62136;-35.664;-63.766;2023-04-06T12:53:58;23.20;56.80
59975;DHT22;62136;-35.664;-63.766;2023-04-06T12:56:25;23.20;56.60
59975;DHT22;62136;-35.664;-63.766;2023-04-06T12:58:53;23.30;56.80
59975;DHT22;62136;-35.664;-63.766;2023-04-06T13:01:21;23.30;57.00
59975;DHT22;62136;-35.664;-63.766;2023-04-06T13:03:48;23.30;56.80
59975;DHT22;62136;-35.664;-63.766;2023-04-06T13:06:15;23.30;57.00
59975;DHT22;62136;-35.664;-63.766;2023-04-06T13:08:42;23.30;56.80
59975;DHT22;62136;-35.664;-63.766;2023-04-06T13:11:09;23.30;56.80
59975;DHT22;62136;-35.664;-63.766;2023-04-06T13:13:37;23.30;56.90
59975;DHT22;62136;-35.664;-63.766;2023-04-06T13:16:08;23.30;57.00
59975;DHT22;62136;-35.664;-63.766;2023-04-06T13:18:36;23.30;57.00
59975;DHT22;62136;-35.664;-63.766;2023-04-06T13:21:05;23.30;57.10
59975;DHT22;62136;-35.664;-63.766;2023-04-06T13:23:33;23.30;57.00
59975;DHT22;62136;-35.664;-63.766;2023-04-06T13:26:05;23.30;57.20
59975;DHT22;62136;-35.664;-63.766;2023-04-06T13:28:34;23.30;57.10
59975;DHT22;62136;-35.664;-63.766;2023-04-06T13:31:03;23.40;57.30
59975;DHT22;62136;-35.664;-63.766;2023-04-06T13:33:31;23.40;57.10
59975;DHT22;62136;-35.664;-63.766;2023-04-06T13:35:59;23.30;57.10
59975;DHT22;62136;-35.664;-63.766;2023-04-06T13:38:26;23.40;57.10
59975;DHT22;62136;-35.664;-63.766;2023-04-06T13:40:53;23.40;57.20
59975;DHT22;62136;-35.664;-63.766;2023-04-06T13:43:21;23.30;57.20
59975;DHT22;62136;-35.664;-63.766;2023-04-06T13:45:52;23.40;57.20
59975;DHT22;62136;-35.664;-63.766;2023-04-06T13:48:24;23.30;57.10
59975;DHT22;62136;-35.664;-63.766;2023-04-06T13:50:52;23.30;57.10
59975;DHT22;62136;-35.664;-63.766;2023-04-06T13:53:19;23.30;57.70
59975;DHT22;62136;-35.664;-63.766;2023-04-06T13:55:55;23.40;57.20
59975;DHT22;62136;-35.664;-63.766;2023-04-06T13:58:23;23.40;57.10
59975;DHT22;62136;-35.664;-63.766;2023-04-06T14:00:50;23.40;57.00
59975;DHT22;62136;-35.664;-63.766;2023-04-06T14:03:17;23.40;57.10
59975;DHT22;62136;-35.664;-63.766;2023-04-06T14:05:45;23.40;57.20
59975;DHT22;62136;-35.664;-63.766;2023-04-06T14:08:12;23.40;57.30
59975;DHT22;62136;-35.664;-63.766;2023-04-06T14:10:40;23.40;57.40
59975;DHT22;62136;-35.664;-63.766;2023-04-06T14:13:08;23.40;57.30
59975;DHT22;62136;-35.664;-63.766;2023-04-06T14:15:35;23.40;57.30
59975;DHT22;62136;-35.664;-63.766;2023-04-06T14:18:02;23.40;57.30
59975;DHT22;62136;-35.664;-63.766;2023-04-06T14:20:31;23.50;57.20
59975;DHT22;62136;-35.664;-63.766;2023-04-06T14:23:00;23.50;57.30
59975;DHT22;62136;-35.664;-63.766;2023-04-06T14:25:28;23.50;57.30
59975;DHT22;62136;-35.664;-63.766;2023-04-06T14:28:00;23.50;57.30
59975;DHT22;62136;-35.664;-63.766;2023-04-06T14:30:29;23.50;57.10
59975;DHT22;62136;-35.664;-63.766;2023-04-06T14:32:59;23.50;57.20
59975;DHT22;62136;-35.664;-63.766;2023-04-06T14:35:26;23.60;57.30
59975;DHT22;62136;-35.664;-63.766;2023-04-06T14:37:54;23.50;57.30
59975;DHT22;62136;-35.664;-63.766;2023-04-06T14:40:21;23.60;57.30
59975;DHT22;62136;-35.664;-63.766;2023-04-06T14:42:48;23.60;57.30
59975;DHT22;62136;-35.664;-63.766;2023-04-06T14:45:17;23.60;57.20
59975;DHT22;62136;-35.664;-63.766;2023-04-06T14:47:45;23.60;57.20
59975;DHT22;62136;-35.664;-63.766;2023-04-06T14:50:13;23.60;57.10
59975;DHT22;62136;-35.664;-63.766;2023-04-06T14:52:40;23.60;57.00
59975;DHT22;62136;-35.664;-63.766;2023-04-06T14:55:07;23.60;57.50
59975;DHT22;62136;-35.664;-63.766;2023-04-06T14:57:34;23.70;56.90
59975;DHT22;62136;-35.664;-63.766;2023-04-06T15:00:01;23.70;57.00
59975;DHT22;62136;-35.664;-63.766;2023-04-06T15:02:29;23.70;57.00
59975;DHT22;62136;-35.664;-63.766;2023-04-06T15:04:57;23.80;57.00